createdAt,value
2023-03-25T00:01:41.604Z,1.08
2023-03-25T00:04:08.887Z,1.13
2023-03-25T00:06:36.261Z,1.60
2023-03-25T00:09:04.895Z,1.00
2023-03-25T00:11:33.564Z,1.77
2023-03-25T00:14:00.886Z,1.25
2023-03-25T00:16:28.271Z,1.40
2023-03-25T00:18:55.632Z,1.02
2023-03-25T00:21:23.265Z,1.30
2023-03-25T00:23:51.022Z,1.30
2023-03-25T00:26:18.330Z,1.50
2023-03-25T00:28:46.958Z,1.50
2023-03-25T00:31:14.962Z,1.52
2023-03-25T00:33:42.575Z,1.00
2023-03-25T00:36:13.300Z,1.55
2023-03-25T00:38:43.022Z,0.98
2023-03-25T00:41:14.393Z,1.13
2023-03-25T00:43:41.799Z,1.20
2023-03-25T00:46:10.473Z,1.38
2023-03-25T00:48:37.951Z,1.67
2023-03-25T00:51:08.522Z,1.38
2023-03-25T00:53:36.156Z,0.77
2023-03-25T00:56:03.623Z,1.05
2023-03-25T00:58:31.043Z,1.13
2023-03-25T01:00:58.426Z,1.13
2023-03-25T01:03:28.773Z,1.25
2023-03-25T01:05:57.814Z,1.02
2023-03-25T01:08:25.360Z,0.90
2023-03-25T01:10:54.092Z,1.00
2023-03-25T01:13:21.684Z,0.90
2023-03-25T01:15:49.586Z,1.02
2023-03-25T01:18:17.296Z,0.70
2023-03-25T01:20:45.939Z,1.15
2023-03-25T01:23:13.220Z,1.45
2023-03-25T01:25:40.804Z,0.93
2023-03-25T01:28:08.366Z,1.05
2023-03-25T01:30:35.836Z,1.00
2023-03-25T01:33:03.166Z,0.88
2023-03-25T01:35:30.533Z,1.23
2023-03-25T01:37:59.423Z,1.13
2023-03-25T01:40:27.115Z,1.00
2023-03-25T01:42:54.445Z,0.88
2023-03-25T01:45:23.651Z,0.95
2023-03-25T01:47:54.020Z,0.90
2023-03-25T01:50:21.634Z,1.33
2023-03-25T01:52:51.394Z,1.02
2023-03-25T01:55:21.113Z,0.70
2023-03-25T01:57:49.248Z,1.15
2023-03-25T02:00:17.168Z,0.70
2023-03-25T02:02:45.624Z,1.27
2023-03-25T02:05:17.769Z,0.80
2023-03-25T02:07:46.566Z,1.13
2023-03-25T02:10:13.957Z,0.88
2023-03-25T02:12:45.400Z,1.10
2023-03-25T02:15:14.162Z,0.80
2023-03-25T02:17:47.592Z,1.23
2023-03-25T02:20:38.705Z,1.15
2023-03-25T02:23:13.898Z,1.10
2023-03-25T02:25:59.715Z,1.58
2023-03-25T02:28:30.525Z,1.10
2023-03-25T02:31:09.915Z,1.23
2023-03-25T02:33:39.831Z,1.10
2023-03-25T02:36:25.379Z,1.33
2023-03-25T02:38:57.694Z,1.40
2023-03-25T02:41:29.756Z,1.50
2023-03-25T02:43:59.977Z,1.23
2023-03-25T02:46:27.522Z,1.25
2023-03-25T02:48:57.056Z,1.10
2023-03-25T02:51:27.123Z,1.55
2023-03-25T02:53:57.114Z,1.30
2023-03-25T02:56:25.558Z,1.60
2023-03-25T02:58:55.371Z,0.95
2023-03-25T03:01:26.683Z,1.40
2023-03-25T03:03:54.566Z,1.63
2023-03-25T03:06:22.194Z,1.77
2023-03-25T03:08:55.675Z,1.52
2023-03-25T03:11:27.201Z,1.95
2023-03-25T03:14:00.584Z,1.75
2023-03-25T03:16:32.827Z,1.70
2023-03-25T03:19:04.727Z,1.40
2023-03-25T03:21:38.098Z,1.75
2023-03-25T03:24:11.234Z,1.60
2023-03-25T03:26:43.195Z,1.52
2023-03-25T03:29:12.757Z,1.52
2023-03-25T03:31:48.213Z,1.40
2023-03-25T03:34:36.399Z,1.58
2023-03-25T03:37:05.710Z,2.00
2023-03-25T03:39:33.932Z,1.83
2023-03-25T03:42:05.514Z,1.42
2023-03-25T03:44:34.228Z,1.45
2023-03-25T03:47:03.410Z,1.60
2023-03-25T03:49:34.879Z,2.08
2023-03-25T03:52:08.048Z,1.35
2023-03-25T03:54:39.471Z,1.10
2023-03-25T03:57:10.893Z,1.15
2023-03-25T03:59:41.979Z,1.33
2023-03-25T04:02:14.126Z,1.73
2023-03-25T04:04:42.658Z,1.95
2023-03-25T04:07:14.616Z,1.45
2023-03-25T04:09:44.943Z,1.45
2023-03-25T04:12:16.061Z,1.17
2023-03-25T04:14:43.607Z,1.35
2023-03-25T04:17:11.185Z,1.55
2023-03-25T04:19:38.608Z,1.55
2023-03-25T04:22:06.772Z,1.20
2023-03-25T04:24:37.618Z,1.52
2023-03-25T04:27:05.107Z,1.63
2023-03-25T04:29:34.542Z,1.30
2023-03-25T04:32:02.482Z,1.27
2023-03-25T04:34:29.874Z,1.15
2023-03-25T04:36:58.482Z,1.48
2023-03-25T04:39:29.491Z,1.00
2023-03-25T04:41:57.400Z,1.40
2023-03-25T04:44:25.777Z,1.52
2023-03-25T04:46:55.936Z,1.40
2023-03-25T04:49:23.806Z,1.30
2023-03-25T04:51:51.794Z,1.45
2023-03-25T04:54:19.241Z,1.10
2023-03-25T04:56:47.546Z,1.35
2023-03-25T04:59:15.819Z,1.75
2023-03-25T05:01:45.886Z,1.42
2023-03-25T05:04:17.471Z,0.80
2023-03-25T05:06:47.028Z,1.27
2023-03-25T05:09:16.497Z,1.40
2023-03-25T05:11:44.181Z,1.40
2023-03-25T05:14:11.915Z,1.02
2023-03-25T05:16:39.605Z,1.77
2023-03-25T05:19:06.960Z,1.35
2023-03-25T05:21:37.425Z,1.13
2023-03-25T05:24:05.214Z,2.00
2023-03-25T05:26:34.378Z,2.00
2023-03-25T05:29:02.503Z,1.40
2023-03-25T05:31:29.989Z,1.25
2023-03-25T05:33:57.650Z,1.73
2023-03-25T05:36:25.557Z,1.15
2023-03-25T05:38:55.310Z,1.42
2023-03-25T05:41:32.281Z,1.70
2023-03-25T05:44:00.377Z,1.90
2023-03-25T05:46:29.273Z,1.40
2023-03-25T05:48:57.863Z,1.35
2023-03-25T05:51:25.880Z,1.33
2023-03-25T05:53:54.613Z,1.98
2023-03-25T05:56:23.001Z,2.00
2023-03-25T05:58:51.149Z,1.85
2023-03-25T06:01:31.871Z,2.17
2023-03-25T06:04:01.137Z,1.23
2023-03-25T06:06:28.620Z,1.90
2023-03-25T06:08:57.634Z,1.80
2023-03-25T06:11:25.559Z,2.42
2023-03-25T06:13:52.999Z,1.85
2023-03-25T06:16:21.250Z,1.60
2023-03-25T06:18:50.597Z,1.45
2023-03-25T06:21:19.077Z,1.70
2023-03-25T06:23:46.598Z,2.03
2023-03-25T06:26:15.333Z,1.65
2023-03-25T06:28:42.705Z,2.28
2023-03-25T06:31:12.995Z,1.85
2023-03-25T06:33:42.599Z,1.38
2023-03-25T06:36:11.475Z,1.60
2023-03-25T06:38:39.122Z,2.15
2023-03-25T06:41:07.508Z,1.75
2023-03-25T06:43:36.223Z,1.60
2023-03-25T06:46:03.659Z,1.90
2023-03-25T06:48:31.022Z,1.00
2023-03-25T06:50:58.466Z,1.50
2023-03-25T06:53:25.903Z,1.60
2023-03-25T06:55:53.269Z,1.05
2023-03-25T06:58:21.094Z,2.40
2023-03-25T07:00:53.940Z,1.73
2023-03-25T07:03:21.318Z,1.30
2023-03-25T07:05:49.176Z,2.10
2023-03-25T07:08:16.795Z,1.60
2023-03-25T07:10:44.200Z,1.48
2023-03-25T07:13:11.733Z,1.60
2023-03-25T07:15:39.195Z,2.25
2023-03-25T07:18:07.907Z,2.08
2023-03-25T07:20:35.433Z,1.95
2023-03-25T07:23:02.819Z,2.00
2023-03-25T07:25:30.165Z,1.73
2023-03-25T07:27:57.470Z,1.70
2023-03-25T07:30:24.774Z,1.27
2023-03-25T07:32:52.101Z,1.35
2023-03-25T07:35:21.543Z,1.33
2023-03-25T07:37:48.932Z,1.95
2023-03-25T07:40:16.421Z,1.70
2023-03-25T07:42:44.705Z,1.85
2023-03-25T07:45:12.517Z,1.98
2023-03-25T07:47:39.936Z,1.95
2023-03-25T07:50:08.029Z,2.00
2023-03-25T07:52:37.038Z,1.65
2023-03-25T07:55:04.548Z,1.88
2023-03-25T07:57:31.886Z,1.40
2023-03-25T07:59:59.195Z,1.58
2023-03-25T08:02:26.573Z,1.15
2023-03-25T08:04:54.899Z,1.20
2023-03-25T08:07:22.259Z,1.70
2023-03-25T08:09:51.054Z,1.48
2023-03-25T08:12:18.376Z,1.75
2023-03-25T08:14:45.759Z,1.63
2023-03-25T08:17:13.064Z,1.70
2023-03-25T08:19:40.712Z,1.35
2023-03-25T08:22:08.060Z,2.08
2023-03-25T08:24:35.410Z,1.17
2023-03-25T08:27:16.129Z,1.40
2023-03-25T08:29:44.293Z,1.58
2023-03-25T08:32:11.704Z,1.50
2023-03-25T08:34:39.831Z,1.30
2023-03-25T08:37:08.267Z,1.83
2023-03-25T08:39:39.321Z,2.30
2023-03-25T08:42:08.744Z,1.58
2023-03-25T08:44:36.409Z,2.83
2023-03-25T08:47:04.063Z,2.28
2023-03-25T08:49:31.524Z,1.70
2023-03-25T08:52:00.755Z,1.83
2023-03-25T08:54:28.961Z,1.83
2023-03-25T08:56:56.353Z,1.45
2023-03-25T08:59:25.159Z,1.80
2023-03-25T09:01:54.505Z,2.22
2023-03-25T09:04:23.013Z,2.35
2023-03-25T09:07:11.397Z,2.67
2023-03-25T09:09:38.608Z,2.08
2023-03-25T09:12:06.652Z,2.67
2023-03-25T09:14:36.040Z,2.90
2023-03-25T09:17:04.547Z,2.17
2023-03-25T09:19:31.889Z,2.83
2023-03-25T09:21:59.207Z,2.20
2023-03-25T09:24:26.933Z,2.38
2023-03-25T09:26:54.215Z,1.75
2023-03-25T09:29:21.488Z,2.28
2023-03-25T09:31:50.138Z,2.13
2023-03-25T09:34:17.403Z,2.03
2023-03-25T09:36:45.610Z,1.88
2023-03-25T09:39:13.411Z,2.20
2023-03-25T09:41:54.510Z,1.88
2023-03-25T09:44:23.490Z,1.73
2023-03-25T09:46:52.189Z,1.70
2023-03-25T09:49:21.250Z,1.90
2023-03-25T09:51:49.962Z,1.88
2023-03-25T09:54:21.215Z,1.85
2023-03-25T09:56:49.188Z,1.95
2023-03-25T09:59:18.438Z,2.53
2023-03-25T10:01:48.326Z,2.28
2023-03-25T10:04:34.300Z,1.67
2023-03-25T10:07:11.034Z,2.20
2023-03-25T10:09:43.934Z,2.90
2023-03-25T10:12:20.615Z,2.30
2023-03-25T10:14:55.933Z,2.60
2023-03-25T10:17:30.690Z,1.60
2023-03-25T10:22:28.072Z,2.13
2023-03-25T10:24:57.201Z,1.50
2023-03-25T10:27:26.612Z,2.63
2023-03-25T10:29:55.220Z,2.10
2023-03-25T10:32:28.568Z,1.52
2023-03-25T10:34:57.505Z,1.48
2023-03-25T10:37:28.558Z,1.65
2023-03-25T10:40:00.318Z,1.98
2023-03-25T10:42:31.419Z,1.98
2023-03-25T10:44:58.754Z,2.63
2023-03-25T10:47:27.880Z,1.75
2023-03-25T10:49:55.557Z,2.38
2023-03-25T10:52:22.861Z,2.00
2023-03-25T10:54:52.207Z,2.58
2023-03-25T10:57:22.913Z,1.60
2023-03-25T10:59:56.540Z,1.38
2023-03-25T11:02:26.219Z,2.67
2023-03-25T11:04:55.845Z,1.95
2023-03-25T11:07:24.612Z,1.73
2023-03-25T11:09:52.080Z,1.48
2023-03-25T11:12:30.257Z,1.80
2023-03-25T11:15:06.140Z,1.77
2023-03-25T11:17:33.442Z,1.60
2023-03-25T11:20:05.518Z,1.65
2023-03-25T11:22:35.719Z,1.80
2023-03-25T11:25:05.204Z,2.10
2023-03-25T11:27:40.991Z,2.28
2023-03-25T11:30:15.228Z,2.20
2023-03-25T11:32:42.852Z,2.55
2023-03-25T11:35:16.347Z,1.98
2023-03-25T11:37:45.692Z,2.03
2023-03-25T11:40:14.498Z,2.05
2023-03-25T11:42:49.385Z,2.13
2023-03-25T11:45:20.683Z,1.85
2023-03-25T11:47:48.225Z,1.80
2023-03-25T11:50:20.856Z,2.85
2023-03-25T11:52:49.584Z,3.58
2023-03-25T11:55:18.220Z,2.75
2023-03-25T11:57:47.721Z,2.28
2023-03-25T12:00:22.265Z,2.55
2023-03-25T12:02:59.651Z,3.17
2023-03-25T12:05:27.048Z,1.50
2023-03-25T12:08:01.606Z,2.15
2023-03-25T12:10:35.622Z,2.38
2023-03-25T12:13:08.311Z,2.53
2023-03-25T12:15:41.321Z,2.88
2023-03-25T12:18:17.616Z,3.53
2023-03-25T12:20:52.859Z,3.17
2023-03-25T12:23:25.490Z,2.45
2023-03-25T12:25:58.199Z,2.72
2023-03-25T12:28:33.794Z,3.28
2023-03-25T12:31:07.368Z,2.47
2023-03-25T12:33:42.114Z,2.38
2023-03-25T12:36:22.229Z,2.42
2023-03-25T12:38:53.223Z,2.45
2023-03-25T12:41:23.044Z,3.08
2023-03-25T12:44:00.580Z,2.42
2023-03-25T12:46:35.607Z,2.08
2023-03-25T12:49:08.615Z,2.55
2023-03-25T12:51:41.532Z,2.70
2023-03-25T12:54:17.050Z,2.50
2023-03-25T12:56:47.446Z,3.08
2023-03-25T12:59:22.348Z,2.65
2023-03-25T13:04:28.540Z,2.17
2023-03-25T13:07:00.002Z,1.40
2023-03-25T13:09:28.932Z,1.88
2023-03-25T13:11:59.626Z,2.25
2023-03-25T13:14:29.678Z,1.52
2023-03-25T13:17:01.016Z,1.52
2023-03-25T13:19:29.525Z,1.90
2023-03-25T13:21:58.425Z,2.03
2023-03-25T13:24:28.076Z,2.45
2023-03-25T13:26:55.967Z,2.42
2023-03-25T13:29:27.192Z,2.10
2023-03-25T13:31:57.610Z,1.90
2023-03-25T13:34:27.241Z,2.35
2023-03-25T13:37:01.538Z,2.17
2023-03-25T13:39:32.518Z,1.83
2023-03-25T13:42:01.072Z,1.85
2023-03-25T13:44:30.107Z,2.05
2023-03-25T13:47:02.199Z,2.08
2023-03-25T13:49:31.852Z,1.60
2023-03-25T13:51:59.339Z,1.52
2023-03-25T13:54:29.636Z,1.85
2023-03-25T13:57:06.808Z,2.08
2023-03-25T14:00:05.754Z,1.90
2023-03-25T14:02:41.887Z,2.22
2023-03-25T14:05:27.902Z,2.05
2023-03-25T14:08:01.937Z,1.90
2023-03-25T14:10:38.177Z,2.67
2023-03-25T14:13:06.797Z,1.92
2023-03-25T14:15:35.848Z,1.70
2023-03-25T14:18:05.001Z,1.55
2023-03-25T14:20:34.487Z,1.10
2023-03-25T14:23:04.734Z,1.65
2023-03-25T14:25:34.987Z,1.90
2023-03-25T14:28:05.082Z,2.38
2023-03-25T14:30:33.356Z,1.73
2023-03-25T14:33:02.904Z,1.15
2023-03-25T14:35:48.473Z,1.70
2023-03-25T14:38:49.092Z,1.90
2023-03-25T14:41:16.723Z,2.03
2023-03-25T14:43:46.517Z,1.92
2023-03-25T14:46:20.105Z,2.90
2023-03-25T14:48:51.880Z,2.78
2023-03-25T14:51:43.074Z,1.77
2023-03-25T14:54:17.989Z,2.55
2023-03-25T14:56:49.119Z,2.40
2023-03-25T14:59:19.196Z,2.22
2023-03-25T15:01:48.632Z,1.90
2023-03-25T15:04:18.341Z,1.65
2023-03-25T15:06:49.028Z,2.20
2023-03-25T15:09:18.020Z,2.28
2023-03-25T15:11:46.310Z,2.47
2023-03-25T15:14:15.875Z,2.20
2023-03-25T15:16:57.719Z,2.35
2023-03-25T15:19:25.699Z,2.63
2023-03-25T15:22:13.804Z,2.95
2023-03-25T15:24:44.221Z,2.47
2023-03-25T15:27:18.574Z,2.40
2023-03-25T15:29:59.804Z,2.53
2023-03-25T15:32:33.133Z,2.85
2023-03-25T15:35:15.499Z,2.80
2023-03-25T15:38:01.687Z,2.58
2023-03-25T15:40:34.887Z,2.97
2023-03-25T15:43:22.070Z,3.13
2023-03-25T15:46:04.330Z,3.03
2023-03-25T15:48:42.340Z,2.08
2023-03-25T15:51:16.471Z,1.90
2023-03-25T15:53:51.393Z,2.13
2023-03-25T15:58:52.304Z,1.90
2023-03-25T16:01:22.569Z,2.00
2023-03-25T16:03:54.329Z,2.67
2023-03-25T16:06:22.408Z,1.92
2023-03-25T16:08:50.478Z,1.73
2023-03-25T16:11:25.080Z,1.98
2023-03-25T16:14:03.601Z,2.00
2023-03-25T16:16:34.389Z,2.50
2023-03-25T16:19:01.996Z,2.78
2023-03-25T16:21:30.205Z,2.22
2023-03-25T16:23:59.628Z,2.50
2023-03-25T16:26:34.750Z,2.35
2023-03-25T16:29:08.706Z,2.03
2023-03-25T16:31:42.533Z,2.43
2023-03-25T16:34:13.991Z,2.22
2023-03-25T16:36:42.626Z,2.40
2023-03-25T16:39:12.508Z,2.10
2023-03-25T16:41:39.860Z,1.55
2023-03-25T16:44:08.928Z,2.13
2023-03-25T16:46:36.427Z,1.88
2023-03-25T16:49:08.057Z,1.80
2023-03-25T16:51:38.924Z,2.15
2023-03-25T16:54:09.048Z,1.83
2023-03-25T16:56:37.831Z,1.25
2023-03-25T16:59:07.649Z,1.90
2023-03-25T17:01:38.193Z,2.30
2023-03-25T17:04:10.323Z,2.08
2023-03-25T17:06:39.800Z,2.30
2023-03-25T17:09:09.859Z,2.90
2023-03-25T17:11:37.267Z,2.00
2023-03-25T17:14:07.586Z,1.20
2023-03-25T17:16:37.868Z,2.03
2023-03-25T17:19:05.486Z,1.92
2023-03-25T17:21:34.175Z,2.00
2023-03-25T17:24:02.467Z,2.00
2023-03-25T17:26:32.638Z,2.20
2023-03-25T17:29:02.738Z,2.22
2023-03-25T17:31:33.578Z,2.50
2023-03-25T17:34:05.262Z,1.92
2023-03-25T17:36:33.251Z,2.00
2023-03-25T17:39:03.619Z,2.08
2023-03-25T17:41:35.902Z,1.85
2023-03-25T17:44:03.312Z,2.00
2023-03-25T17:46:31.833Z,2.03
2023-03-25T17:48:59.787Z,2.75
2023-03-25T17:51:29.226Z,2.00
2023-03-25T17:53:57.207Z,2.58
2023-03-25T17:56:26.468Z,2.63
2023-03-25T17:58:58.993Z,2.17
2023-03-25T18:01:27.260Z,2.40
2023-03-25T18:03:54.802Z,2.10
2023-03-25T18:06:24.575Z,1.55
2023-03-25T18:08:53.383Z,2.30
2023-03-25T18:11:21.272Z,2.25
2023-03-25T18:13:48.637Z,1.77
2023-03-25T18:16:16.413Z,1.95
2023-03-25T18:18:43.861Z,1.88
2023-03-25T18:21:12.248Z,1.90
2023-03-25T18:23:39.619Z,1.92
2023-03-25T18:26:12.574Z,1.15
2023-03-25T18:28:42.700Z,2.58
2023-03-25T18:31:11.867Z,2.67
2023-03-25T18:33:39.230Z,2.45
2023-03-25T18:36:07.311Z,2.70
2023-03-25T18:38:34.631Z,2.60
2023-03-25T18:41:02.433Z,2.50
2023-03-25T18:43:31.238Z,3.80
2023-03-25T18:45:58.761Z,2.83
2023-03-25T18:48:26.079Z,1.90
2023-03-25T18:50:54.798Z,2.45
2023-03-25T18:53:22.729Z,1.95
2023-03-25T18:55:51.109Z,1.88
2023-03-25T18:58:19.300Z,2.58
2023-03-25T19:00:48.544Z,2.13
2023-03-25T19:03:16.562Z,3.40
2023-03-25T19:05:44.079Z,3.58
2023-03-25T19:08:16.507Z,3.25
2023-03-25T19:10:43.841Z,4.38
2023-03-25T19:13:11.213Z,3.63
2023-03-25T19:15:38.560Z,3.40
2023-03-25T19:18:07.578Z,3.85
2023-03-25T19:20:36.287Z,3.28
2023-03-25T19:23:04.490Z,3.60
2023-03-25T19:25:31.847Z,3.42
2023-03-25T19:27:59.293Z,3.47
2023-03-25T19:30:26.690Z,4.55
2023-03-25T19:32:54.804Z,4.05
2023-03-25T19:35:24.055Z,4.43
2023-03-25T19:37:51.848Z,3.85
2023-03-25T19:40:20.783Z,3.20
2023-03-25T19:42:48.736Z,4.05
2023-03-25T19:45:16.833Z,3.67
2023-03-25T19:47:45.834Z,4.15
2023-03-25T19:50:14.177Z,3.25
2023-03-25T19:52:43.590Z,4.13
2023-03-25T19:55:11.835Z,3.70
2023-03-25T19:57:39.556Z,3.95
2023-03-25T20:00:12.281Z,3.15
2023-03-25T20:02:40.123Z,3.90
2023-03-25T20:05:08.321Z,3.92
2023-03-25T20:07:35.775Z,3.88
2023-03-25T20:10:17.092Z,3.80
2023-03-25T20:12:46.480Z,3.60
2023-03-25T20:15:14.872Z,3.22
2023-03-25T20:17:42.206Z,3.85
2023-03-25T20:20:11.246Z,4.22
2023-03-25T20:22:38.557Z,3.65
2023-03-25T20:25:08.176Z,3.08
2023-03-25T20:27:36.022Z,3.70
2023-03-25T20:30:03.740Z,3.08
2023-03-25T20:32:40.955Z,3.95
2023-03-25T20:35:10.550Z,2.72
2023-03-25T20:37:39.792Z,3.22
2023-03-25T20:40:11.373Z,2.67
2023-03-25T20:42:39.368Z,4.15
2023-03-25T20:45:07.383Z,2.85
2023-03-25T20:47:34.985Z,4.25
2023-03-25T20:50:02.774Z,2.88
2023-03-25T20:52:30.132Z,3.50
2023-03-25T20:54:57.665Z,4.45
2023-03-25T20:57:26.465Z,3.38
2023-03-25T20:59:54.063Z,3.65
2023-03-25T21:02:21.702Z,4.60
2023-03-25T21:04:49.079Z,3.72
2023-03-25T21:07:18.970Z,3.75
2023-03-25T21:09:46.611Z,3.42
2023-03-25T21:12:14.054Z,4.13
2023-03-25T21:14:42.977Z,4.65
2023-03-25T21:17:10.787Z,5.13
2023-03-25T21:19:38.220Z,3.75
2023-03-25T21:22:05.574Z,3.67
2023-03-25T21:24:34.278Z,3.45
2023-03-25T21:27:01.676Z,2.60
2023-03-25T21:29:29.077Z,3.35
2023-03-25T21:31:57.852Z,3.92
2023-03-25T21:34:25.495Z,3.53
2023-03-25T21:36:52.780Z,4.28
2023-03-25T21:39:20.632Z,4.15
2023-03-25T21:41:47.982Z,4.45
2023-03-25T21:44:16.406Z,3.70
2023-03-25T21:46:43.827Z,3.55
2023-03-25T21:49:13.862Z,3.67
2023-03-25T21:51:44.063Z,4.00
2023-03-25T21:54:14.218Z,3.67
2023-03-25T21:56:42.233Z,3.53
2023-03-25T21:59:10.243Z,4.28
2023-03-25T22:01:41.566Z,3.60
2023-03-25T22:04:09.758Z,2.80
2023-03-25T22:06:38.445Z,3.85
2023-03-25T22:09:06.808Z,4.13
2023-03-25T22:11:35.448Z,4.20
2023-03-25T22:14:05.207Z,5.78
2023-03-25T22:16:35.410Z,4.15
2023-03-25T22:19:02.786Z,3.78
2023-03-25T22:21:30.979Z,3.53
2023-03-25T22:24:00.370Z,3.70
2023-03-25T22:26:28.533Z,4.03
2023-03-25T22:28:56.464Z,4.82
2023-03-25T22:31:26.038Z,3.83
2023-03-25T22:33:58.319Z,3.78
2023-03-25T22:36:25.756Z,3.60
2023-03-25T22:38:56.069Z,3.67
2023-03-25T22:41:24.704Z,3.83
2023-03-25T22:43:52.099Z,4.22
2023-03-25T22:46:19.657Z,4.32
2023-03-25T22:48:47.093Z,4.03
2023-03-25T22:51:15.429Z,4.00
2023-03-25T22:53:42.759Z,3.88
2023-03-25T22:56:10.791Z,4.18
2023-03-25T22:58:39.463Z,4.30
2023-03-25T23:01:07.826Z,4.18
2023-03-25T23:03:36.174Z,3.58
2023-03-25T23:06:04.498Z,4.15
2023-03-25T23:08:33.059Z,3.65
2023-03-25T23:11:03.597Z,4.38
2023-03-25T23:13:31.241Z,4.03
2023-03-25T23:16:01.112Z,3.88
2023-03-25T23:18:28.485Z,3.63
2023-03-25T23:20:56.530Z,4.75
2023-03-25T23:23:25.022Z,4.35
2023-03-25T23:26:03.574Z,5.25
2023-03-25T23:28:34.107Z,3.58
2023-03-25T23:31:03.307Z,3.88
2023-03-25T23:33:31.158Z,4.15
2023-03-25T23:36:01.335Z,4.93
2023-03-25T23:38:28.673Z,4.07
2023-03-25T23:41:02.465Z,4.18
2023-03-25T23:43:30.156Z,4.50
2023-03-25T23:45:57.863Z,4.28
2023-03-25T23:48:26.591Z,3.75
2023-03-25T23:50:54.763Z,4.35
2023-03-25T23:53:22.398Z,4.32
2023-03-25T23:55:51.294Z,4.70
2023-03-25T23:58:18.836Z,3.70
